Time;durP1;ratioP1;P1;durP2;ratioP2;P2;SDS_P1;SDS_P2;PMS_P1;PMS_P2;Temp;Humidity;BMP_temperature;BMP_pressure;BME280_temperature;BME280_humidity;BME280_pressure;Samples;Min_cycle;Max_cycle;Signal;HPM_P1;HPM_P2
2023/05/05 00:01:31;;;;;;;4.10;3.67;;;;;;;;;;5049615;28;20215;-70
2023/05/05 00:03:59;;;;;;;5.85;3.38;;;;;;;;;;5050335;28;20291;-69
2023/05/05 00:06:27;;;;;;;3.90;3.45;;;;;;;;;;5047694;28;20202;-71
2023/05/05 00:08:54;;;;;;;3.47;3.00;;;;;;;;;;5051958;28;20211;-69
2023/05/05 00:11:21;;;;;;;5.35;3.60;;;;;;;;;;5051373;28;20203;-69
2023/05/05 00:13:48;;;;;;;3.40;3.20;;;;;;;;;;5048445;28;20212;-69
2023/05/05 00:16:16;;;;;;;3.55;3.25;;;;;;;;;;5051986;28;20214;-70
2023/05/05 00:18:44;;;;;;;3.75;3.45;;;;;;;;;;5052128;28;20211;-70
2023/05/05 00:21:12;;;;;;;4.20;3.10;;;;;;;;;;5050634;28;20219;-70
2023/05/05 00:23:39;;;;;;;3.42;3.13;;;;;;;;;;5048212;28;20207;-70
2023/05/05 00:26:06;;;;;;;5.03;3.78;;;;;;;;;;5049814;28;20199;-70
2023/05/05 00:28:33;;;;;;;5.10;3.60;;;;;;;;;;5050745;28;20211;-71
2023/05/05 00:31:00;;;;;;;3.90;3.60;;;;;;;;;;5050733;28;20207;-69
2023/05/05 00:33:27;;;;;;;4.88;3.45;;;;;;;;;;5048756;28;20231;-69
2023/05/05 00:35:56;;;;;;;4.57;3.67;;;;;;;;;;5049094;28;20204;-70
2023/05/05 00:38:23;;;;;;;4.63;3.63;;;;;;;;;;5051374;28;20207;-69
2023/05/05 00:40:50;;;;;;;3.63;3.33;;;;;;;;;;5051711;28;20233;-70
2023/05/05 00:43:17;;;;;;;4.00;3.60;;;;;;;;;;5051534;28;20208;-71
2023/05/05 00:45:46;;;;;;;3.45;3.15;;;;;;;;;;5051864;28;20198;-69
2023/05/05 00:48:15;;;;;;;5.28;3.72;;;;;;;;;;5048625;28;20196;-70
2023/05/05 00:50:44;;;;;;;5.05;3.67;;;;;;;;;;5048866;28;20206;-69
2023/05/05 00:53:12;;;;;;;3.58;3.28;;;;;;;;;;5047851;28;20203;-70
2023/05/05 00:55:40;;;;;;;4.50;3.65;;;;;;;;;;5047281;28;20223;-71
2023/05/05 00:58:07;;;;;;;4.53;3.53;;;;;;;;;;5048181;28;20215;-70
2023/05/05 01:00:34;;;;;;;3.53;3.22;;;;;;;;;;5049235;28;20207;-70
2023/05/05 01:03:01;;;;;;;3.67;3.38;;;;;;;;;;5048601;28;20203;-69
2023/05/05 01:05:32;;;;;;;3.38;3.10;;;;;;;;;;5049050;28;20199;-69
2023/05/05 01:08:06;;;;;;;4.55;3.45;;;;;;;;;;5048984;28;20204;-61
2023/05/05 01:10:36;;;;;;;5.22;3.60;;;;;;;;;;5048369;28;20233;-62
2023/05/05 01:13:09;;;;;;;3.53;3.30;;;;;;;;;;5048779;28;20195;-61
2023/05/05 01:15:37;;;;;;;3.72;3.42;;;;;;;;;;5046374;28;20231;-62
2023/05/05 01:18:10;;;;;;;4.97;3.35;;;;;;;;;;5048007;28;20214;-62
2023/05/05 01:20:42;;;;;;;3.97;3.67;;;;;;;;;;5050342;28;20330;-61
2023/05/05 01:23:10;;;;;;;3.95;3.53;;;;;;;;;;5049634;28;20294;-61
2023/05/05 01:25:47;;;;;;;3.70;3.35;;;;;;;;;;5051512;28;20203;-61
2023/05/05 01:28:24;;;;;;;3.78;3.50;;;;;;;;;;5045926;28;20209;-61
2023/05/05 01:31:02;;;;;;;4.03;3.60;;;;;;;;;;5050000;28;20241;-62
2023/05/05 01:33:34;;;;;;;4.05;3.60;;;;;;;;;;5046217;28;20206;-62
2023/05/05 01:36:04;;;;;;;4.72;3.80;;;;;;;;;;5048120;28;20211;-62
2023/05/05 01:38:33;;;;;;;3.88;3.45;;;;;;;;;;5045629;28;20207;-62
2023/05/05 01:41:02;;;;;;;5.13;3.53;;;;;;;;;;5050137;28;20203;-62
2023/05/05 01:43:31;;;;;;;4.60;3.53;;;;;;;;;;5049923;28;20203;-62
2023/05/05 01:45:59;;;;;;;4.32;3.30;;;;;;;;;;5049281;28;20285;-62
2023/05/05 01:48:28;;;;;;;6.25;3.78;;;;;;;;;;5049685;28;20206;-62
2023/05/05 01:50:57;;;;;;;5.20;3.10;;;;;;;;;;5050131;28;20200;-62
2023/05/05 01:53:24;;;;;;;4.85;3.40;;;;;;;;;;5050314;28;20214;-62
2023/05/05 01:55:52;;;;;;;3.97;3.17;;;;;;;;;;5049318;28;20226;-62
2023/05/05 01:58:22;;;;;;;3.67;3.00;;;;;;;;;;5048864;28;20200;-62
2023/05/05 02:00:50;;;;;;;3.78;3.47;;;;;;;;;;5047227;28;20200;-62
2023/05/05 02:03:18;;;;;;;3.45;3.15;;;;;;;;;;5048780;28;20269;-62
2023/05/05 02:05:47;;;;;;;4.25;3.35;;;;;;;;;;5047162;28;20200;-62
2023/05/05 02:08:17;;;;;;;3.78;3.47;;;;;;;;;;5045647;28;20212;-61
2023/05/05 02:10:44;;;;;;;4.05;3.60;;;;;;;;;;5045482;28;20231;-62
2023/05/05 02:13:12;;;;;;;3.45;3.15;;;;;;;;;;5048787;28;20210;-62
2023/05/05 02:15:40;;;;;;;3.65;3.33;;;;;;;;;;5048870;28;20231;-62
2023/05/05 02:18:07;;;;;;;3.33;3.10;;;;;;;;;;5050627;28;20207;-62
2023/05/05 02:20:34;;;;;;;3.40;3.10;;;;;;;;;;5047597;28;20208;-61
2023/05/05 02:23:03;;;;;;;5.40;3.13;;;;;;;;;;5043525;28;20207;-62
2023/05/05 02:25:36;;;;;;;3.60;3.20;;;;;;;;;;5039964;28;20204;-61
2023/05/05 02:28:04;;;;;;;3.25;3.00;;;;;;;;;;5047593;28;20199;-61
2023/05/05 02:30:33;;;;;;;3.95;3.00;;;;;;;;;;5046287;28;20200;-62
2023/05/05 02:33:05;;;;;;;3.22;2.72;;;;;;;;;;5045671;28;20199;-61
2023/05/05 02:35:34;;;;;;;3.00;2.65;;;;;;;;;;5045661;28;20219;-62
2023/05/05 02:38:04;;;;;;;3.22;2.92;;;;;;;;;;5037985;28;20203;-62
2023/05/05 02:40:34;;;;;;;3.40;2.75;;;;;;;;;;5042172;28;20203;-62
2023/05/05 02:43:10;;;;;;;3.97;2.72;;;;;;;;;;5047634;28;20215;-62
2023/05/05 02:45:37;;;;;;;4.18;2.80;;;;;;;;;;5046086;28;20203;-62
2023/05/05 02:48:05;;;;;;;3.63;3.03;;;;;;;;;;5040694;28;20207;-62
2023/05/05 02:50:32;;;;;;;2.92;2.72;;;;;;;;;;5041217;28;20211;-62
2023/05/05 02:52:59;;;;;;;3.17;2.88;;;;;;;;;;5039588;28;20207;-62
2023/05/05 02:55:28;;;;;;;3.60;3.20;;;;;;;;;;5047995;28;20223;-62
2023/05/05 02:58:01;;;;;;;3.78;3.38;;;;;;;;;;5046379;28;20203;-62
2023/05/05 03:00:29;;;;;;;3.95;3.35;;;;;;;;;;5043844;28;20199;-62
2023/05/05 03:03:02;;;;;;;3.63;3.20;;;;;;;;;;5040776;28;20204;-62
2023/05/05 03:05:35;;;;;;;3.40;3.10;;;;;;;;;;5052093;28;20196;-61
2023/05/05 03:08:04;;;;;;;2.92;2.63;;;;;;;;;;5053168;28;20200;-62
2023/05/05 03:10:35;;;;;;;3.97;3.20;;;;;;;;;;5052116;28;20238;-62
2023/05/05 03:13:07;;;;;;;3.60;3.20;;;;;;;;;;5052599;28;20207;-61
2023/05/05 03:15:36;;;;;;;3.67;3.35;;;;;;;;;;5050388;28;20231;-62
2023/05/05 03:18:04;;;;;;;3.55;3.25;;;;;;;;;;5051320;28;20215;-62
2023/05/05 03:20:32;;;;;;;3.97;3.35;;;;;;;;;;5048138;28;20211;-62
2023/05/05 03:23:01;;;;;;;4.00;3.30;;;;;;;;;;5052190;28;20203;-62
2023/05/05 03:25:42;;;;;;;3.30;3.10;;;;;;;;;;5050456;28;20202;-62
2023/05/05 03:28:10;;;;;;;4.57;4.18;;;;;;;;;;5053299;28;20233;-62
2023/05/05 03:30:37;;;;;;;4.57;3.75;;;;;;;;;;5051527;28;20231;-62
2023/05/05 03:33:04;;;;;;;4.38;3.97;;;;;;;;;;5049842;28;20203;-62
2023/05/05 03:35:32;;;;;;;4.32;3.58;;;;;;;;;;5048987;28;20223;-62
2023/05/05 03:37:59;;;;;;;4.50;4.00;;;;;;;;;;5050558;28;20211;-62
2023/05/05 03:40:26;;;;;;;4.80;4.07;;;;;;;;;;5053380;28;20199;-62
2023/05/05 03:42:53;;;;;;;4.03;3.70;;;;;;;;;;5052251;28;20199;-62
2023/05/05 03:45:22;;;;;;;5.35;4.35;;;;;;;;;;5048108;28;20211;-62
2023/05/05 03:47:49;;;;;;;5.30;3.90;;;;;;;;;;5052453;28;20203;-62
2023/05/05 03:50:16;;;;;;;3.72;3.50;;;;;;;;;;5047705;28;20240;-62
2023/05/05 03:52:43;;;;;;;5.00;3.45;;;;;;;;;;5050390;28;20207;-62
2023/05/05 03:55:10;;;;;;;4.22;3.92;;;;;;;;;;5046666;28;20226;-62
2023/05/05 03:57:37;;;;;;;4.03;3.63;;;;;;;;;;5051138;28;20211;-62
2023/05/05 04:00:05;;;;;;;5.35;4.10;;;;;;;;;;5051783;28;20207;-62
2023/05/05 04:02:33;;;;;;;4.43;3.90;;;;;;;;;;5050673;28;20207;-62
2023/05/05 04:05:01;;;;;;;7.75;6.70;;;;;;;;;;5050091;28;20214;-63
2023/05/05 04:07:28;;;;;;;5.15;4.00;;;;;;;;;;5051626;28;20269;-62
2023/05/05 04:09:55;;;;;;;5.28;4.38;;;;;;;;;;5050164;28;20231;-62
2023/05/05 04:12:22;;;;;;;5.85;4.28;;;;;;;;;;5048331;28;20214;-62
2023/05/05 04:14:49;;;;;;;4.30;3.90;;;;;;;;;;5051048;28;20294;-62
2023/05/05 04:17:16;;;;;;;4.40;4.00;;;;;;;;;;5052440;28;20215;-62
2023/05/05 04:19:45;;;;;;;4.55;4.15;;;;;;;;;;5051827;28;20211;-62
2023/05/05 04:22:12;;;;;;;5.32;4.47;;;;;;;;;;5050052;28;20210;-62
2023/05/05 04:24:39;;;;;;;4.72;4.28;;;;;;;;;;5052735;28;20215;-62
2023/05/05 04:27:06;;;;;;;4.93;3.92;;;;;;;;;;5047750;28;20210;-62
2023/05/05 04:29:33;;;;;;;4.30;3.90;;;;;;;;;;5048517;28;20212;-62
2023/05/05 04:32:00;;;;;;;5.10;3.90;;;;;;;;;;5047015;28;20203;-71
2023/05/05 04:34:28;;;;;;;6.32;4.32;;;;;;;;;;5050218;28;20264;-71
2023/05/05 04:36:56;;;;;;;4.82;4.32;;;;;;;;;;5044230;28;20230;-71
2023/05/05 04:39:23;;;;;;;4.40;4.00;;;;;;;;;;5046007;28;20206;-71
2023/05/05 04:41:50;;;;;;;5.15;3.85;;;;;;;;;;5044700;28;20203;-70
2023/05/05 04:44:17;;;;;;;4.55;4.00;;;;;;;;;;5045812;28;20200;-70
2023/05/05 04:46:44;;;;;;;5.30;3.88;;;;;;;;;;5045177;28;20200;-70
2023/05/05 04:49:11;;;;;;;4.45;3.70;;;;;;;;;;5043955;28;20214;-70
2023/05/05 04:51:41;;;;;;;5.47;4.13;;;;;;;;;;5046390;28;20203;-70
2023/05/05 04:54:09;;;;;;;3.97;3.60;;;;;;;;;;5043126;28;20204;-70
2023/05/05 04:56:36;;;;;;;4.13;3.72;;;;;;;;;;5049670;28;20219;-70
2023/05/05 04:59:04;;;;;;;5.18;4.57;;;;;;;;;;5050055;28;20201;-70
2023/05/05 05:01:31;;;;;;;4.20;3.80;;;;;;;;;;5048934;28;20207;-70
2023/05/05 05:03:59;;;;;;;7.55;3.60;;;;;;;;;;5048521;28;20207;-70
2023/05/05 05:06:26;;;;;;;3.90;3.50;;;;;;;;;;5047571;28;20207;-70
2023/05/05 05:08:53;;;;;;;4.00;3.70;;;;;;;;;;5051333;28;20222;-70
2023/05/05 05:11:21;;;;;;;4.97;3.47;;;;;;;;;;5047266;28;20207;-71
2023/05/05 05:13:49;;;;;;;5.53;3.50;;;;;;;;;;5046702;28;20265;-70
2023/05/05 05:16:16;;;;;;;4.47;3.25;;;;;;;;;;5050195;28;20298;-70
2023/05/05 05:18:43;;;;;;;3.28;3.00;;;;;;;;;;5051151;28;20207;-70
2023/05/05 05:21:10;;;;;;;5.20;2.85;;;;;;;;;;5049865;28;20206;-70
2023/05/05 05:23:37;;;;;;;4.95;3.05;;;;;;;;;;5049738;28;20214;-70
2023/05/05 05:26:05;;;;;;;3.22;3.00;;;;;;;;;;5050067;28;20221;-70
2023/05/05 05:28:33;;;;;;;3.03;2.83;;;;;;;;;;5047095;28;20295;-69
2023/05/05 05:31:01;;;;;;;2.83;2.63;;;;;;;;;;5047746;28;20212;-70
2023/05/05 05:33:28;;;;;;;4.00;2.90;;;;;;;;;;5043771;28;20204;-71
2023/05/05 05:35:55;;;;;;;5.68;2.88;;;;;;;;;;5044428;28;20223;-70
2023/05/05 05:38:22;;;;;;;4.10;3.10;;;;;;;;;;5047941;28;20214;-70
2023/05/05 05:40:49;;;;;;;5.03;3.22;;;;;;;;;;5048614;28;20207;-70
2023/05/05 05:43:16;;;;;;;3.45;3.15;;;;;;;;;;5047730;28;20211;-71
2023/05/05 05:45:45;;;;;;;3.55;3.15;;;;;;;;;;5049242;28;20203;-70
2023/05/05 05:48:12;;;;;;;4.13;2.97;;;;;;;;;;5048181;28;20227;-70
2023/05/05 05:50:39;;;;;;;3.60;3.28;;;;;;;;;;5037045;28;20200;-71
2023/05/05 05:53:06;;;;;;;4.00;3.00;;;;;;;;;;5037951;28;20207;-69
2023/05/05 05:55:34;;;;;;;3.58;3.28;;;;;;;;;;5047647;28;20223;-70
2023/05/05 05:58:01;;;;;;;3.50;3.20;;;;;;;;;;5049713;28;20207;-69
2023/05/05 06:00:29;;;;;;;4.47;3.30;;;;;;;;;;5040830;28;20240;-70
2023/05/05 06:02:57;;;;;;;5.88;3.78;;;;;;;;;;5035077;28;20212;-70
2023/05/05 06:05:24;;;;;;;4.82;3.10;;;;;;;;;;5037523;28;20299;-69
2023/05/05 06:07:52;;;;;;;3.33;3.03;;;;;;;;;;5047085;28;20191;-69
2023/05/05 06:10:20;;;;;;;3.67;3.38;;;;;;;;;;5045828;28;20246;-69
2023/05/05 06:12:47;;;;;;;3.85;3.30;;;;;;;;;;5041586;28;20207;-69
2023/05/05 06:15:14;;;;;;;6.75;3.40;;;;;;;;;;5046376;28;20286;-69
2023/05/05 06:17:41;;;;;;;4.25;3.20;;;;;;;;;;5046679;28;20227;-69
2023/05/05 06:20:12;;;;;;;3.40;3.10;;;;;;;;;;5045359;28;20217;-69
2023/05/05 06:22:39;;;;;;;3.40;3.10;;;;;;;;;;5045877;28;20199;-69
2023/05/05 06:25:07;;;;;;;3.42;3.05;;;;;;;;;;5043934;28;20261;-68
2023/05/05 06:27:35;;;;;;;3.85;3.25;;;;;;;;;;5045497;28;20191;-68
2023/05/05 06:30:02;;;;;;;3.88;3.28;;;;;;;;;;5044829;28;20215;-68
2023/05/05 06:32:30;;;;;;;5.82;3.30;;;;;;;;;;5044705;28;20254;-69
2023/05/05 06:34:57;;;;;;;5.90;3.03;;;;;;;;;;5036142;28;20207;-69
2023/05/05 06:37:26;;;;;;;4.95;3.22;;;;;;;;;;5041461;28;20227;-69
2023/05/05 06:39:53;;;;;;;4.07;2.90;;;;;;;;;;5049936;28;20213;-68
2023/05/05 06:42:20;;;;;;;5.85;3.63;;;;;;;;;;5041146;28;20226;-68
2023/05/05 06:44:47;;;;;;;3.55;2.97;;;;;;;;;;5045029;28;20208;-68
2023/05/05 06:47:15;;;;;;;3.70;3.30;;;;;;;;;;5047597;28;20195;-69
2023/05/05 06:49:42;;;;;;;3.50;3.20;;;;;;;;;;5037240;28;20203;-69
2023/05/05 06:52:09;;;;;;;3.33;3.03;;;;;;;;;;5033802;28;20234;-69
2023/05/05 06:54:37;;;;;;;3.17;2.90;;;;;;;;;;5037642;28;20242;-68
2023/05/05 06:57:05;;;;;;;3.72;3.17;;;;;;;;;;5043176;28;20238;-69
2023/05/05 06:59:32;;;;;;;4.35;3.28;;;;;;;;;;5031792;28;20227;-68
2023/05/05 07:01:59;;;;;;;4.97;3.40;;;;;;;;;;5045060;28;20278;-69
2023/05/05 07:04:35;;;;;;;4.18;3.15;;;;;;;;;;5046074;28;20208;-68
2023/05/05 07:07:02;;;;;;;3.33;3.03;;;;;;;;;;5043611;28;20210;-68
2023/05/05 07:09:29;;;;;;;3.30;3.00;;;;;;;;;;5047230;28;20246;-67
2023/05/05 07:11:58;;;;;;;4.35;3.03;;;;;;;;;;5045603;28;20199;-67
2023/05/05 07:14:25;;;;;;;4.40;3.30;;;;;;;;;;5045229;28;20199;-68
2023/05/05 07:16:52;;;;;;;6.65;3.55;;;;;;;;;;5051488;28;20228;-67
2023/05/05 07:19:20;;;;;;;4.72;3.22;;;;;;;;;;5051545;28;20208;-67
2023/05/05 07:21:48;;;;;;;4.50;3.45;;;;;;;;;;5049213;28;20218;-67
2023/05/05 07:24:16;;;;;;;5.22;2.70;;;;;;;;;;5047712;28;20204;-67
2023/05/05 07:26:44;;;;;;;3.83;3.17;;;;;;;;;;5047688;28;20199;-67
2023/05/05 07:29:15;;;;;;;5.13;3.33;;;;;;;;;;5035133;28;20215;-68
2023/05/05 07:31:47;;;;;;;3.75;3.45;;;;;;;;;;5036373;28;20254;-67
2023/05/05 07:34:14;;;;;;;4.22;3.08;;;;;;;;;;5045465;28;20195;-68
2023/05/05 07:36:43;;;;;;;4.15;3.00;;;;;;;;;;5043086;28;20284;-67
2023/05/05 07:39:14;;;;;;;4.47;2.90;;;;;;;;;;5050497;28;20210;-67
2023/05/05 07:41:47;;;;;;;3.45;2.85;;;;;;;;;;5043282;28;20207;-68
2023/05/05 07:44:16;;;;;;;4.65;3.25;;;;;;;;;;5052245;28;20207;-68
2023/05/05 07:46:47;;;;;;;3.30;3.00;;;;;;;;;;5046205;28;20203;-68
2023/05/05 07:49:15;;;;;;;5.38;3.67;;;;;;;;;;5044358;28;20242;-68
2023/05/05 07:51:43;;;;;;;3.58;2.83;;;;;;;;;;5041305;28;20207;-68
2023/05/05 07:54:14;;;;;;;3.40;3.03;;;;;;;;;;5038226;28;20216;-67
2023/05/05 07:56:45;;;;;;;5.22;3.15;;;;;;;;;;5052634;28;20230;-68
2023/05/05 07:59:13;;;;;;;6.32;3.38;;;;;;;;;;5052554;28;20268;-67
2023/05/05 08:01:42;;;;;;;3.08;2.78;;;;;;;;;;5050454;28;20211;-68
2023/05/05 08:04:12;;;;;;;3.17;2.88;;;;;;;;;;5048148;28;20204;-68
2023/05/05 08:06:40;;;;;;;3.30;2.90;;;;;;;;;;5050654;28;20198;-67
2023/05/05 08:09:07;;;;;;;3.70;3.00;;;;;;;;;;5045676;28;20228;-67
2023/05/05 08:11:35;;;;;;;3.72;2.75;;;;;;;;;;5049389;28;20204;-68
2023/05/05 08:14:09;;;;;;;3.38;2.72;;;;;;;;;;5052466;28;20222;-68
2023/05/05 08:16:36;;;;;;;3.88;2.80;;;;;;;;;;5048520;28;20225;-68
2023/05/05 08:19:05;;;;;;;3.25;2.67;;;;;;;;;;5049941;28;20207;-68
2023/05/05 08:21:32;;;;;;;6.00;2.95;;;;;;;;;;5042549;28;20298;-67
2023/05/05 08:23:59;;;;;;;5.50;2.70;;;;;;;;;;5050941;28;20204;-68
2023/05/05 08:26:26;;;;;;;3.22;2.75;;;;;;;;;;5042910;28;20227;-68
2023/05/05 08:28:59;;;;;;;4.50;2.50;;;;;;;;;;5051477;28;20214;-67
2023/05/05 08:31:26;;;;;;;3.40;2.85;;;;;;;;;;5050872;28;20222;-67
2023/05/05 08:33:53;;;;;;;3.85;2.90;;;;;;;;;;5048283;28;20208;-67
2023/05/05 08:36:22;;;;;;;4.07;2.63;;;;;;;;;;5050795;28;20239;-68
2023/05/05 08:38:49;;;;;;;5.18;2.78;;;;;;;;;;5050700;28;20290;-67
2023/05/05 08:41:17;;;;;;;3.95;2.55;;;;;;;;;;5050875;28;20200;-68
2023/05/05 08:43:45;;;;;;;3.63;2.70;;;;;;;;;;5047639;28;20207;-67
2023/05/05 08:46:12;;;;;;;3.22;2.65;;;;;;;;;;5050496;28;20219;-61
2023/05/05 08:48:40;;;;;;;6.40;2.60;;;;;;;;;;5051201;28;20221;-60
2023/05/05 08:51:07;;;;;;;5.63;2.53;;;;;;;;;;5052553;28;20207;-60
2023/05/05 08:53:47;;;;;;;3.45;2.30;;;;;;;;;;5043701;28;20207;-60
2023/05/05 08:56:14;;;;;;;4.57;2.67;;;;;;;;;;5049725;28;20239;-61
2023/05/05 08:58:42;;;;;;;2.88;2.10;;;;;;;;;;5050505;28;20206;-60
2023/05/05 09:01:09;;;;;;;3.70;2.35;;;;;;;;;;5046338;28;20238;-60
2023/05/05 09:03:37;;;;;;;3.63;1.98;;;;;;;;;;5045339;28;20201;-60
2023/05/05 09:06:05;;;;;;;5.28;2.45;;;;;;;;;;5045724;28;20273;-60
2023/05/05 09:08:32;;;;;;;4.43;2.20;;;;;;;;;;5046703;28;20204;-60
2023/05/05 09:11:00;;;;;;;3.08;2.13;;;;;;;;;;5048870;28;20227;-60
2023/05/05 09:13:28;;;;;;;4.20;2.20;;;;;;;;;;5049522;28;20199;-59
2023/05/05 09:15:55;;;;;;;4.90;2.28;;;;;;;;;;5047264;28;20204;-60
2023/05/05 09:18:22;;;;;;;3.03;1.95;;;;;;;;;;5046305;28;20226;-60
2023/05/05 09:20:49;;;;;;;3.00;2.10;;;;;;;;;;5046180;28;20211;-60
2023/05/05 09:23:17;;;;;;;3.40;1.80;;;;;;;;;;5041891;28;20211;-60
2023/05/05 09:25:45;;;;;;;3.05;1.98;;;;;;;;;;5049103;28;20200;-61
2023/05/05 09:28:15;;;;;;;3.50;2.00;;;;;;;;;;5047721;28;20230;-60
2023/05/05 09:30:43;;;;;;;2.17;1.77;;;;;;;;;;5046131;28;20203;-61
2023/05/05 09:33:10;;;;;;;2.15;1.85;;;;;;;;;;5042857;28;20256;-60
2023/05/05 09:35:51;;;;;;;3.40;1.90;;;;;;;;;;5043536;28;20200;-60
2023/05/05 09:38:18;;;;;;;3.60;1.92;;;;;;;;;;5046213;28;20222;-60
2023/05/05 09:40:47;;;;;;;2.97;1.80;;;;;;;;;;5048408;28;20206;-60
2023/05/05 09:43:15;;;;;;;2.78;1.80;;;;;;;;;;5048669;28;20203;-61
2023/05/05 09:45:43;;;;;;;2.83;1.58;;;;;;;;;;5046994;28;20207;-60
2023/05/05 09:48:23;;;;;;;2.45;1.50;;;;;;;;;;5044964;28;20198;-60
2023/05/05 09:50:51;;;;;;;2.42;1.60;;;;;;;;;;5044859;28;20230;-60
2023/05/05 09:53:18;;;;;;;2.53;1.63;;;;;;;;;;5048215;28;20214;-60
2023/05/05 09:55:55;;;;;;;4.00;1.80;;;;;;;;;;5051553;28;20203;-60
2023/05/05 09:58:24;;;;;;;3.58;1.92;;;;;;;;;;5045827;28;20227;-60
2023/05/05 10:00:52;;;;;;;4.88;2.05;;;;;;;;;;5051055;28;20222;-60
2023/05/05 10:03:19;;;;;;;4.60;1.65;;;;;;;;;;5047981;28;20231;-60
2023/05/05 10:05:51;;;;;;;2.33;1.20;;;;;;;;;;5041884;28;20254;-61
2023/05/05 10:08:18;;;;;;;1.42;1.23;;;;;;;;;;5046630;28;20203;-60
2023/05/05 10:10:47;;;;;;;4.15;1.42;;;;;;;;;;5047104;28;20227;-60
2023/05/05 10:13:16;;;;;;;1.67;1.13;;;;;;;;;;5044394;28;20203;-60
2023/05/05 10:15:45;;;;;;;2.00;1.10;;;;;;;;;;5047016;28;20199;-60
2023/05/05 10:18:15;;;;;;;2.95;1.20;;;;;;;;;;5045550;28;20226;-60
2023/05/05 10:20:42;;;;;;;1.45;1.23;;;;;;;;;;5048807;28;20196;-59
2023/05/05 10:23:15;;;;;;;2.05;1.23;;;;;;;;;;5044910;28;20257;-60
2023/05/05 10:25:46;;;;;;;2.22;1.30;;;;;;;;;;5045264;28;20207;-60
2023/05/05 10:28:17;;;;;;;2.13;1.25;;;;;;;;;;5043463;28;20203;-61
2023/05/05 10:30:50;;;;;;;1.67;1.10;;;;;;;;;;5039806;28;20214;-60
2023/05/05 10:33:19;;;;;;;1.58;1.02;;;;;;;;;;5038085;28;20210;-60
2023/05/05 10:35:50;;;;;;;1.67;1.02;;;;;;;;;;5042327;28;20204;-60
2023/05/05 10:38:18;;;;;;;3.55;1.17;;;;;;;;;;5047955;28;20225;-61
2023/05/05 10:40:45;;;;;;;1.48;1.00;;;;;;;;;;5043169;28;20227;-61
2023/05/05 10:43:13;;;;;;;4.20;0.90;;;;;;;;;;5043354;28;20241;-60
2023/05/05 10:45:40;;;;;;;4.47;0.95;;;;;;;;;;5044828;28;20203;-60
2023/05/05 10:48:12;;;;;;;1.15;0.88;;;;;;;;;;5049328;28;20196;-60
2023/05/05 10:50:42;;;;;;;2.58;0.80;;;;;;;;;;5052421;28;20207;-60
2023/05/05 10:53:13;;;;;;;5.35;1.23;;;;;;;;;;5049821;28;20196;-60
2023/05/05 10:55:42;;;;;;;3.10;1.08;;;;;;;;;;5050231;28;20209;-60
2023/05/05 10:58:09;;;;;;;2.88;1.02;;;;;;;;;;5050544;28;20224;-60
2023/05/05 11:00:51;;;;;;;1.67;0.90;;;;;;;;;;5053845;28;20207;-60
2023/05/05 11:03:24;;;;;;;1.70;0.90;;;;;;;;;;5053347;28;20207;-60
2023/05/05 11:06:11;;;;;;;3.47;0.77;;;;;;;;;;5053884;28;20264;-60
2023/05/05 11:08:39;;;;;;;2.08;1.00;;;;;;;;;;5054491;28;20199;-60
2023/05/05 11:11:06;;;;;;;3.33;1.10;;;;;;;;;;5052166;28;20286;-60
2023/05/05 11:13:33;;;;;;;2.22;1.17;;;;;;;;;;5040940;28;20208;-60
2023/05/05 11:16:01;;;;;;;3.60;1.00;;;;;;;;;;5046967;28;20207;-60
2023/05/05 11:18:32;;;;;;;1.83;0.90;;;;;;;;;;5047104;28;20224;-60
2023/05/05 11:21:15;;;;;;;3.28;1.40;;;;;;;;;;5050566;28;20245;-60
2023/05/05 11:23:43;;;;;;;2.45;0.90;;;;;;;;;;5048658;28;20236;-60
2023/05/05 11:26:11;;;;;;;1.10;0.80;;;;;;;;;;5050328;28;20208;-60
2023/05/05 11:28:53;;;;;;;1.83;1.13;;;;;;;;;;5046841;28;20199;-60
2023/05/05 11:31:20;;;;;;;2.63;1.10;;;;;;;;;;5048186;28;20209;-61
2023/05/05 11:33:48;;;;;;;2.92;2.30;;;;;;;;;;5047426;28;20203;-60
2023/05/05 11:36:16;;;;;;;1.10;0.90;;;;;;;;;;5048049;28;20249;-60
2023/05/05 11:39:08;;;;;;;1.88;0.93;;;;;;;;;;5047965;28;20230;-60
2023/05/05 11:41:45;;;;;;;1.13;1.08;;;;;;;;;;5047067;28;20288;-60
2023/05/05 11:44:13;;;;;;;4.70;1.35;;;;;;;;;;5044844;28;20214;-60
2023/05/05 11:46:40;;;;;;;2.92;1.10;;;;;;;;;;5046433;28;20203;-60
2023/05/05 11:49:09;;;;;;;4.15;0.98;;;;;;;;;;5041859;28;20208;-60
2023/05/05 11:51:36;;;;;;;2.35;1.05;;;;;;;;;;5049750;28;20215;-62
2023/05/05 11:54:03;;;;;;;1.52;0.88;;;;;;;;;;5053889;28;20226;-60
2023/05/05 11:56:30;;;;;;;3.70;1.13;;;;;;;;;;5045406;28;20200;-60
2023/05/05 11:59:07;;;;;;;2.53;1.17;;;;;;;;;;5044914;28;20223;-60
2023/05/05 12:01:35;;;;;;;2.83;1.50;;;;;;;;;;5049096;28;20211;-60
2023/05/05 12:04:02;;;;;;;3.63;1.15;;;;;;;;;;5043099;28;20207;-60
2023/05/05 12:06:32;;;;;;;3.00;1.10;;;;;;;;;;5047100;28;20204;-60
2023/05/05 12:08:59;;;;;;;4.45;1.40;;;;;;;;;;5044648;28;20207;-60
2023/05/05 12:11:26;;;;;;;3.78;1.10;;;;;;;;;;5043919;28;20298;-60
2023/05/05 12:14:08;;;;;;;4.03;1.27;;;;;;;;;;5051142;28;20196;-60
2023/05/05 12:16:35;;;;;;;3.95;1.15;;;;;;;;;;5050765;28;20211;-60
2023/05/05 12:19:05;;;;;;;3.05;1.08;;;;;;;;;;5043287;28;20211;-61
2023/05/05 12:21:34;;;;;;;2.60;1.30;;;;;;;;;;5044028;28;20203;-60
2023/05/05 12:24:01;;;;;;;3.10;1.27;;;;;;;;;;5044905;28;20208;-60
2023/05/05 12:26:29;;;;;;;2.33;1.30;;;;;;;;;;5041983;28;20211;-60
2023/05/05 12:28:56;;;;;;;2.45;1.13;;;;;;;;;;5041281;28;20203;-60
2023/05/05 12:31:23;;;;;;;2.17;1.10;;;;;;;;;;5039489;28;20210;-61
2023/05/05 12:33:51;;;;;;;3.13;1.02;;;;;;;;;;5045894;28;20207;-60
2023/05/05 12:36:18;;;;;;;1.00;0.88;;;;;;;;;;5041515;28;20199;-60
2023/05/05 12:38:46;;;;;;;2.83;1.20;;;;;;;;;;5042957;28;20223;-60
2023/05/05 12:41:20;;;;;;;4.22;1.17;;;;;;;;;;5040717;28;20199;-60
2023/05/05 12:43:47;;;;;;;2.28;1.10;;;;;;;;;;5042203;28;20207;-60
2023/05/05 12:46:14;;;;;;;4.07;1.30;;;;;;;;;;5045480;28;20207;-60
2023/05/05 12:48:43;;;;;;;1.50;0.95;;;;;;;;;;5049955;28;20195;-60
2023/05/05 12:51:19;;;;;;;2.65;1.23;;;;;;;;;;5045600;28;20200;-60
2023/05/05 12:53:49;;;;;;;1.48;1.20;;;;;;;;;;5038728;28;20242;-60
2023/05/05 12:56:39;;;;;;;2.10;1.00;;;;;;;;;;5036834;28;20206;-60
2023/05/05 12:59:07;;;;;;;4.28;1.45;;;;;;;;;;5038813;28;20231;-60
2023/05/05 13:01:34;;;;;;;4.20;1.60;;;;;;;;;;5043337;28;20207;-60
2023/05/05 13:04:05;;;;;;;3.38;1.30;;;;;;;;;;5043426;28;20204;-60
2023/05/05 13:06:33;;;;;;;4.18;1.58;;;;;;;;;;5044019;28;20215;-60
2023/05/05 13:09:01;;;;;;;1.85;1.20;;;;;;;;;;5038651;28;20202;-60
2023/05/05 13:11:29;;;;;;;3.13;1.30;;;;;;;;;;5038137;28;20207;-60
2023/05/05 13:13:56;;;;;;;3.83;1.40;;;;;;;;;;5044819;28;20296;-60
2023/05/05 13:16:23;;;;;;;4.63;1.65;;;;;;;;;;5039095;28;20199;-60
2023/05/05 13:18:52;;;;;;;2.83;1.05;;;;;;;;;;5037776;28;20223;-60
2023/05/05 13:21:19;;;;;;;4.18;1.23;;;;;;;;;;5041761;28;20226;-60
2023/05/05 13:23:46;;;;;;;1.73;1.15;;;;;;;;;;5039325;28;20204;-60
2023/05/05 13:26:15;;;;;;;1.88;0.82;;;;;;;;;;5039224;28;20210;-60
2023/05/05 13:28:42;;;;;;;2.20;1.23;;;;;;;;;;5038710;28;20199;-60
2023/05/05 13:31:10;;;;;;;4.03;1.10;;;;;;;;;;5035415;28;20207;-60
2023/05/05 13:33:37;;;;;;;2.38;0.98;;;;;;;;;;5045339;28;20207;-60
2023/05/05 13:36:04;;;;;;;2.20;1.10;;;;;;;;;;5039730;28;20207;-60
2023/05/05 13:38:32;;;;;;;3.92;1.05;;;;;;;;;;5046119;28;20234;-60
2023/05/05 13:40:59;;;;;;;2.78;1.23;;;;;;;;;;5045176;28;20211;-60
2023/05/05 13:43:27;;;;;;;4.28;1.30;;;;;;;;;;5041594;28;20200;-60
2023/05/05 13:45:55;;;;;;;1.27;1.00;;;;;;;;;;5037511;28;20212;-60
2023/05/05 13:48:22;;;;;;;3.33;1.25;;;;;;;;;;5043085;28;20203;-60
2023/05/05 13:50:49;;;;;;;2.20;1.10;;;;;;;;;;5040781;28;20345;-60
2023/05/05 13:53:17;;;;;;;3.13;1.23;;;;;;;;;;5039008;28;20207;-60
2023/05/05 13:55:44;;;;;;;3.30;1.13;;;;;;;;;;5042693;28;20234;-60
2023/05/05 13:58:11;;;;;;;1.88;1.00;;;;;;;;;;5045859;28;20238;-60
2023/05/05 14:00:40;;;;;;;3.40;1.08;;;;;;;;;;5048639;28;20211;-60
2023/05/05 14:03:07;;;;;;;2.30;1.30;;;;;;;;;;5040464;28;20207;-60
2023/05/05 14:05:35;;;;;;;2.13;1.20;;;;;;;;;;5048309;28;20211;-60
2023/05/05 14:08:02;;;;;;;2.20;1.20;;;;;;;;;;5042897;28;20208;-60
2023/05/05 14:10:29;;;;;;;3.50;1.33;;;;;;;;;;5045237;28;20305;-60
2023/05/05 14:12:57;;;;;;;2.22;1.20;;;;;;;;;;5042298;28;20204;-60
2023/05/05 14:15:24;;;;;;;3.08;1.40;;;;;;;;;;5043981;28;20324;-60
2023/05/05 14:17:52;;;;;;;4.93;1.23;;;;;;;;;;5042607;28;20210;-60
2023/05/05 14:20:19;;;;;;;2.42;1.35;;;;;;;;;;5039320;28;20196;-60
2023/05/05 14:22:47;;;;;;;2.85;1.42;;;;;;;;;;5045532;28;20290;-60
2023/05/05 14:25:14;;;;;;;4.00;1.65;;;;;;;;;;5045151;28;20199;-60
2023/05/05 14:27:41;;;;;;;3.00;1.50;;;;;;;;;;5036563;28;20206;-60
2023/05/05 14:30:09;;;;;;;3.17;1.40;;;;;;;;;;5042843;28;20206;-60
2023/05/05 14:32:36;;;;;;;3.08;1.70;;;;;;;;;;5037462;28;20210;-60
2023/05/05 14:35:05;;;;;;;2.08;1.40;;;;;;;;;;5042928;28;20207;-60
2023/05/05 14:37:32;;;;;;;3.72;2.30;;;;;;;;;;5031126;28;20223;-61
2023/05/05 14:39:59;;;;;;;3.88;1.80;;;;;;;;;;5040176;28;20217;-60
2023/05/05 14:42:26;;;;;;;2.88;1.60;;;;;;;;;;5041728;28;20207;-60
2023/05/05 14:44:53;;;;;;;2.40;1.33;;;;;;;;;;5039495;28;20203;-60
2023/05/05 14:47:21;;;;;;;4.97;1.45;;;;;;;;;;5039294;28;20204;-61
2023/05/05 14:49:48;;;;;;;2.97;1.50;;;;;;;;;;5037364;28;20203;-60
2023/05/05 14:52:16;;;;;;;3.08;1.45;;;;;;;;;;5038676;28;20204;-60